sensor_id;sensor_type;location;lat;lon;timestamp;temperature;humidity
6690;DHT22;3382;51.576;8.076;2023-02-01T00:01:59;14.80;99.90
6690;DHT22;3382;51.576;8.076;2023-02-01T00:04:25;14.80;99.90
6690;DHT22;3382;51.576;8.076;2023-02-01T00:06:51;14.90;99.90
6690;DHT22;3382;51.576;8.076;2023-02-01T00:09:16;15.10;99.90
6690;DHT22;3382;51.576;8.076;2023-02-01T00:11:42;15.00;99.90
6690;DHT22;3382;51.576;8.076;2023-02-01T00:14:07;14.50;99.90
6690;DHT22;3382;51.576;8.076;2023-02-01T00:16:33;14.20;99.90
6690;DHT22;3382;51.576;8.076;2023-02-01T00:19:09;14.00;99.90
6690;DHT22;3382;51.576;8.076;2023-02-01T00:21:35;14.10;99.90
6690;DHT22;3382;51.576;8.076;2023-02-01T00:24:01;14.30;99.90
6690;DHT22;3382;51.576;8.076;2023-02-01T00:26:30;14.30;99.90
6690;DHT22;3382;51.576;8.076;2023-02-01T00:28:56;14.40;99.90
6690;DHT22;3382;51.576;8.076;2023-02-01T00:31:22;14.50;99.90
6690;DHT22;3382;51.576;8.076;2023-02-01T00:33:48;15.00;99.90
6690;DHT22;3382;51.576;8.076;2023-02-01T00:36:14;15.10;99.90
6690;DHT22;3382;51.576;8.076;2023-02-01T00:38:40;15.20;99.90
6690;DHT22;3382;51.576;8.076;2023-02-01T00:41:09;15.60;99.90
6690;DHT22;3382;51.576;8.076;2023-02-01T00:43:35;15.30;99.90
6690;DHT22;3382;51.576;8.076;2023-02-01T00:46:01;15.00;99.90
6690;DHT22;3382;51.576;8.076;2023-02-01T00:48:27;14.90;99.90
6690;DHT22;3382;51.576;8.076;2023-02-01T00:50:53;14.30;99.90
6690;DHT22;3382;51.576;8.076;2023-02-01T00:53:19;14.00;99.90
6690;DHT22;3382;51.576;8.076;2023-02-01T00:55:46;13.90;99.90
6690;DHT22;3382;51.576;8.076;2023-02-01T00:58:11;13.50;99.90
6690;DHT22;3382;51.576;8.076;2023-02-01T01:00:37;13.20;99.90
6690;DHT22;3382;51.576;8.076;2023-02-01T01:03:03;13.40;99.90
6690;DHT22;3382;51.576;8.076;2023-02-01T01:05:46;13.90;99.90
6690;DHT22;3382;51.576;8.076;2023-02-01T01:08:12;14.40;99.90
6690;DHT22;3382;51.576;8.076;2023-02-01T01:10:38;14.50;99.90
6690;DHT22;3382;51.576;8.076;2023-02-01T01:13:04;13.90;99.90
6690;DHT22;3382;51.576;8.076;2023-02-01T01:15:30;13.70;99.90
6690;DHT22;3382;51.576;8.076;2023-02-01T01:17:55;14.30;99.90
6690;DHT22;3382;51.576;8.076;2023-02-01T01:20:21;15.00;99.90
6690;DHT22;3382;51.576;8.076;2023-02-01T01:22:47;15.60;99.90
6690;DHT22;3382;51.576;8.076;2023-02-01T01:25:13;16.00;99.90
6690;DHT22;3382;51.576;8.076;2023-02-01T01:27:39;15.80;99.90
6690;DHT22;3382;51.576;8.076;2023-02-01T01:30:05;15.70;99.90
6690;DHT22;3382;51.576;8.076;2023-02-01T01:32:31;16.00;99.90
6690;DHT22;3382;51.576;8.076;2023-02-01T01:34:56;15.80;99.90
6690;DHT22;3382;51.576;8.076;2023-02-01T01:37:22;15.80;99.90
6690;DHT22;3382;51.576;8.076;2023-02-01T01:39:47;16.30;99.90
6690;DHT22;3382;51.576;8.076;2023-02-01T01:42:13;16.10;99.90
6690;DHT22;3382;51.576;8.076;2023-02-01T01:45:00;15.50;99.90
6690;DHT22;3382;51.576;8.076;2023-02-01T01:47:35;14.90;99.90
6690;DHT22;3382;51.576;8.076;2023-02-01T01:50:04;15.00;99.90
6690;DHT22;3382;51.576;8.076;2023-02-01T01:52:31;15.10;99.90
6690;DHT22;3382;51.576;8.076;2023-02-01T01:54:57;15.30;99.90
6690;DHT22;3382;51.576;8.076;2023-02-01T01:57:30;15.80;99.90
6690;DHT22;3382;51.576;8.076;2023-02-01T02:00:04;16.20;99.90
6690;DHT22;3382;51.576;8.076;2023-02-01T02:02:30;16.60;99.90
6690;DHT22;3382;51.576;8.076;2023-02-01T02:04:56;17.00;99.90
6690;DHT22;3382;51.576;8.076;2023-02-01T02:07:30;16.60;99.90
6690;DHT22;3382;51.576;8.076;2023-02-01T02:09:56;16.50;99.90
6690;DHT22;3382;51.576;8.076;2023-02-01T02:12:22;17.00;99.90
6690;DHT22;3382;51.576;8.076;2023-02-01T02:14:48;17.40;99.90
6690;DHT22;3382;51.576;8.076;2023-02-01T02:25:52;16.90;99.90
6690;DHT22;3382;51.576;8.076;2023-02-01T02:38:53;17.90;99.90
6690;DHT22;3382;51.576;8.076;2023-02-01T02:42:29;17.80;99.90
6690;DHT22;3382;51.576;8.076;2023-02-01T02:44:54;17.90;99.90
6690;DHT22;3382;51.576;8.076;2023-02-01T02:50:35;17.60;99.90
6690;DHT22;3382;51.576;8.076;2023-02-01T02:53:38;17.70;99.90
6690;DHT22;3382;51.576;8.076;2023-02-01T02:56:23;17.80;99.90
6690;DHT22;3382;51.576;8.076;2023-02-01T02:59:12;18.00;99.90
6690;DHT22;3382;51.576;8.076;2023-02-01T03:01:58;18.10;99.90
6690;DHT22;3382;51.576;8.076;2023-02-01T03:04:42;18.50;99.90
6690;DHT22;3382;51.576;8.076;2023-02-01T03:10:02;18.60;99.90
6690;DHT22;3382;51.576;8.076;2023-02-01T03:12:32;18.40;99.90
6690;DHT22;3382;51.576;8.076;2023-02-01T03:15:18;18.40;99.90
6690;DHT22;3382;51.576;8.076;2023-02-01T03:17:44;18.80;99.90
6690;DHT22;3382;51.576;8.076;2023-02-01T03:20:12;18.90;99.90
6690;DHT22;3382;51.576;8.076;2023-02-01T03:22:40;18.90;99.90
6690;DHT22;3382;51.576;8.076;2023-02-01T03:25:11;19.00;99.90
6690;DHT22;3382;51.576;8.076;2023-02-01T03:27:47;19.10;99.90
6690;DHT22;3382;51.576;8.076;2023-02-01T03:32:49;19.20;99.90
6690;DHT22;3382;51.576;8.076;2023-02-01T03:41:29;19.60;99.90
6690;DHT22;3382;51.576;8.076;2023-02-01T03:46:47;19.60;99.90
6690;DHT22;3382;51.576;8.076;2023-02-01T03:49:26;19.70;99.90
6690;DHT22;3382;51.576;8.076;2023-02-01T03:51:53;19.80;99.90
6690;DHT22;3382;51.576;8.076;2023-02-01T03:54:20;19.60;99.90
6690;DHT22;3382;51.576;8.076;2023-02-01T03:56:47;19.50;99.90
6690;DHT22;3382;51.576;8.076;2023-02-01T03:59:14;19.40;99.90
6690;DHT22;3382;51.576;8.076;2023-02-01T04:01:40;19.40;99.90
6690;DHT22;3382;51.576;8.076;2023-02-01T04:04:06;19.20;99.90
6690;DHT22;3382;51.576;8.076;2023-02-01T04:06:32;19.20;99.90
6690;DHT22;3382;51.576;8.076;2023-02-01T04:08:58;19.40;99.90
6690;DHT22;3382;51.576;8.076;2023-02-01T04:11:23;19.40;99.90
6690;DHT22;3382;51.576;8.076;2023-02-01T04:13:49;19.50;99.90
6690;DHT22;3382;51.576;8.076;2023-02-01T04:16:14;19.40;99.90
6690;DHT22;3382;51.576;8.076;2023-02-01T04:18:40;19.30;99.90
6690;DHT22;3382;51.576;8.076;2023-02-01T04:21:06;19.40;99.90
6690;DHT22;3382;51.576;8.076;2023-02-01T04:23:31;19.40;99.90
6690;DHT22;3382;51.576;8.076;2023-02-01T04:26:02;19.20;99.90
6690;DHT22;3382;51.576;8.076;2023-02-01T04:28:28;18.50;99.90
6690;DHT22;3382;51.576;8.076;2023-02-01T04:30:54;18.60;99.90
6690;DHT22;3382;51.576;8.076;2023-02-01T04:33:19;18.80;99.90
6690;DHT22;3382;51.576;8.076;2023-02-01T04:35:45;19.00;99.90
6690;DHT22;3382;51.576;8.076;2023-02-01T04:38:11;19.10;99.90
6690;DHT22;3382;51.576;8.076;2023-02-01T04:40:37;19.20;99.90
6690;DHT22;3382;51.576;8.076;2023-02-01T04:43:03;19.20;99.90
6690;DHT22;3382;51.576;8.076;2023-02-01T04:45:30;18.90;99.90
6690;DHT22;3382;51.576;8.076;2023-02-01T04:47:55;19.30;99.90
6690;DHT22;3382;51.576;8.076;2023-02-01T04:50:21;19.60;99.90
6690;DHT22;3382;51.576;8.076;2023-02-01T04:52:49;19.70;99.90
6690;DHT22;3382;51.576;8.076;2023-02-01T04:55:14;19.90;99.90
6690;DHT22;3382;51.576;8.076;2023-02-01T04:57:40;19.70;99.90
6690;DHT22;3382;51.576;8.076;2023-02-01T05:00:08;19.60;99.90
6690;DHT22;3382;51.576;8.076;2023-02-01T05:02:34;19.70;99.90
6690;DHT22;3382;51.576;8.076;2023-02-01T05:05:00;19.40;99.90
6690;DHT22;3382;51.576;8.076;2023-02-01T05:07:26;19.40;99.90
6690;DHT22;3382;51.576;8.076;2023-02-01T05:09:51;19.30;99.90
6690;DHT22;3382;51.576;8.076;2023-02-01T05:12:17;18.90;99.90
6690;DHT22;3382;51.576;8.076;2023-02-01T05:15:01;18.70;99.90
6690;DHT22;3382;51.576;8.076;2023-02-01T05:17:27;18.70;99.90
6690;DHT22;3382;51.576;8.076;2023-02-01T05:19:52;18.80;99.90
6690;DHT22;3382;51.576;8.076;2023-02-01T05:22:18;18.90;99.90
6690;DHT22;3382;51.576;8.076;2023-02-01T05:24:44;18.40;99.90
6690;DHT22;3382;51.576;8.076;2023-02-01T05:27:10;18.50;99.90
6690;DHT22;3382;51.576;8.076;2023-02-01T05:29:35;18.90;99.90
6690;DHT22;3382;51.576;8.076;2023-02-01T05:32:01;19.50;99.90
6690;DHT22;3382;51.576;8.076;2023-02-01T05:34:27;19.60;99.90
6690;DHT22;3382;51.576;8.076;2023-02-01T05:36:52;19.50;99.90
6690;DHT22;3382;51.576;8.076;2023-02-01T05:39:18;19.70;99.90
6690;DHT22;3382;51.576;8.076;2023-02-01T05:41:44;19.70;99.90
6690;DHT22;3382;51.576;8.076;2023-02-01T05:44:10;19.30;99.90
6690;DHT22;3382;51.576;8.076;2023-02-01T05:46:36;18.90;99.90
6690;DHT22;3382;51.576;8.076;2023-02-01T05:49:02;18.60;99.90
6690;DHT22;3382;51.576;8.076;2023-02-01T05:51:28;18.10;99.90
6690;DHT22;3382;51.576;8.076;2023-02-01T05:53:53;17.70;99.90
6690;DHT22;3382;51.576;8.076;2023-02-01T05:56:19;17.90;99.90
6690;DHT22;3382;51.576;8.076;2023-02-01T05:58:45;18.90;99.90
6690;DHT22;3382;51.576;8.076;2023-02-01T06:01:10;19.20;99.90
6690;DHT22;3382;51.576;8.076;2023-02-01T06:03:36;19.20;99.90
6690;DHT22;3382;51.576;8.076;2023-02-01T06:06:02;18.30;99.90
6690;DHT22;3382;51.576;8.076;2023-02-01T06:08:28;18.40;99.90
6690;DHT22;3382;51.576;8.076;2023-02-01T06:11:02;19.00;99.90
6690;DHT22;3382;51.576;8.076;2023-02-01T06:13:28;19.50;99.90
6690;DHT22;3382;51.576;8.076;2023-02-01T06:15:54;19.80;99.90
6690;DHT22;3382;51.576;8.076;2023-02-01T06:18:21;20.00;99.90
6690;DHT22;3382;51.576;8.076;2023-02-01T06:20:54;20.10;99.90
6690;DHT22;3382;51.576;8.076;2023-02-01T06:23:20;20.30;99.90
6690;DHT22;3382;51.576;8.076;2023-02-01T06:25:57;20.40;99.90
6690;DHT22;3382;51.576;8.076;2023-02-01T06:28:25;20.20;99.90
6690;DHT22;3382;51.576;8.076;2023-02-01T06:30:50;20.00;99.90
6690;DHT22;3382;51.576;8.076;2023-02-01T06:33:16;20.00;99.90
6690;DHT22;3382;51.576;8.076;2023-02-01T06:35:42;20.10;99.90
6690;DHT22;3382;51.576;8.076;2023-02-01T06:38:13;19.80;99.90
6690;DHT22;3382;51.576;8.076;2023-02-01T06:40:40;19.20;99.90
6690;DHT22;3382;51.576;8.076;2023-02-01T06:43:09;19.30;99.90
6690;DHT22;3382;51.576;8.076;2023-02-01T06:45:34;18.70;99.90
6690;DHT22;3382;51.576;8.076;2023-02-01T06:48:00;18.30;99.90
6690;DHT22;3382;51.576;8.076;2023-02-01T06:50:26;17.70;99.90
6690;DHT22;3382;51.576;8.076;2023-02-01T06:52:52;17.80;99.90
6690;DHT22;3382;51.576;8.076;2023-02-01T06:55:17;17.80;99.90
6690;DHT22;3382;51.576;8.076;2023-02-01T06:57:43;17.50;99.90
6690;DHT22;3382;51.576;8.076;2023-02-01T07:00:09;16.90;99.90
6690;DHT22;3382;51.576;8.076;2023-02-01T07:02:35;16.70;99.90
6690;DHT22;3382;51.576;8.076;2023-02-01T07:05:00;17.10;99.90
6690;DHT22;3382;51.576;8.076;2023-02-01T07:07:26;17.40;99.90
6690;DHT22;3382;51.576;8.076;2023-02-01T07:09:51;17.50;99.90
6690;DHT22;3382;51.576;8.076;2023-02-01T07:12:18;17.80;99.90
6690;DHT22;3382;51.576;8.076;2023-02-01T07:14:44;17.90;99.90
6690;DHT22;3382;51.576;8.076;2023-02-01T07:17:10;18.30;99.90
6690;DHT22;3382;51.576;8.076;2023-02-01T07:19:35;18.40;99.90
6690;DHT22;3382;51.576;8.076;2023-02-01T07:22:01;18.40;99.90
6690;DHT22;3382;51.576;8.076;2023-02-01T07:24:26;18.10;99.90
6690;DHT22;3382;51.576;8.076;2023-02-01T07:26:52;17.90;99.90
6690;DHT22;3382;51.576;8.076;2023-02-01T07:29:18;17.70;99.90
6690;DHT22;3382;51.576;8.076;2023-02-01T07:31:44;17.80;99.90
6690;DHT22;3382;51.576;8.076;2023-02-01T07:34:09;17.90;99.90
6690;DHT22;3382;51.576;8.076;2023-02-01T07:36:35;18.00;99.90
6690;DHT22;3382;51.576;8.076;2023-02-01T07:39:04;18.20;99.90
6690;DHT22;3382;51.576;8.076;2023-02-01T07:41:30;18.00;99.90
6690;DHT22;3382;51.576;8.076;2023-02-01T07:43:56;18.00;99.90
6690;DHT22;3382;51.576;8.076;2023-02-01T07:46:22;18.10;99.90
6690;DHT22;3382;51.576;8.076;2023-02-01T07:48:48;18.10;99.90
6690;DHT22;3382;51.576;8.076;2023-02-01T07:51:15;17.90;99.90
6690;DHT22;3382;51.576;8.076;2023-02-01T07:53:42;18.00;99.90
6690;DHT22;3382;51.576;8.076;2023-02-01T07:56:16;18.10;99.90
6690;DHT22;3382;51.576;8.076;2023-02-01T07:58:42;18.30;99.90
6690;DHT22;3382;51.576;8.076;2023-02-01T08:01:20;18.40;99.90
6690;DHT22;3382;51.576;8.076;2023-02-01T08:03:54;18.00;99.90
6690;DHT22;3382;51.576;8.076;2023-02-01T08:06:21;17.80;99.90
6690;DHT22;3382;51.576;8.076;2023-02-01T08:08:48;17.30;99.90
6690;DHT22;3382;51.576;8.076;2023-02-01T08:11:15;17.50;99.90
6690;DHT22;3382;51.576;8.076;2023-02-01T08:13:42;17.40;99.90
6690;DHT22;3382;51.576;8.076;2023-02-01T08:16:09;17.40;99.90
6690;DHT22;3382;51.576;8.076;2023-02-01T08:18:36;17.50;99.90
6690;DHT22;3382;51.576;8.076;2023-02-01T08:21:04;17.80;99.90
6690;DHT22;3382;51.576;8.076;2023-02-01T08:23:30;18.40;99.90
6690;DHT22;3382;51.576;8.076;2023-02-01T08:26:20;18.20;99.90
6690;DHT22;3382;51.576;8.076;2023-02-01T08:28:49;18.00;99.90
6690;DHT22;3382;51.576;8.076;2023-02-01T08:31:18;17.30;99.90
6690;DHT22;3382;51.576;8.076;2023-02-01T08:33:47;17.30;99.90
6690;DHT22;3382;51.576;8.076;2023-02-01T08:36:13;17.10;99.90
6690;DHT22;3382;51.576;8.076;2023-02-01T08:38:40;17.20;99.90
6690;DHT22;3382;51.576;8.076;2023-02-01T08:41:08;17.30;99.90
6690;DHT22;3382;51.576;8.076;2023-02-01T08:43:34;17.40;99.90
6690;DHT22;3382;51.576;8.076;2023-02-01T08:46:00;17.80;99.90
6690;DHT22;3382;51.576;8.076;2023-02-01T08:48:26;18.20;99.90
6690;DHT22;3382;51.576;8.076;2023-02-01T08:50:51;18.20;99.90
6690;DHT22;3382;51.576;8.076;2023-02-01T08:53:17;18.20;99.90
6690;DHT22;3382;51.576;8.076;2023-02-01T08:55:43;18.20;99.90
6690;DHT22;3382;51.576;8.076;2023-02-01T08:58:10;17.50;99.90
6690;DHT22;3382;51.576;8.076;2023-02-01T09:00:36;17.50;99.90
6690;DHT22;3382;51.576;8.076;2023-02-01T09:03:01;17.80;99.90
6690;DHT22;3382;51.576;8.076;2023-02-01T09:05:27;18.20;99.90
6690;DHT22;3382;51.576;8.076;2023-02-01T09:07:53;18.40;99.90
6690;DHT22;3382;51.576;8.076;2023-02-01T09:10:19;18.10;99.90
6690;DHT22;3382;51.576;8.076;2023-02-01T09:12:44;18.50;99.90
6690;DHT22;3382;51.576;8.076;2023-02-01T09:15:10;17.90;99.90
6690;DHT22;3382;51.576;8.076;2023-02-01T09:17:36;17.10;99.90
6690;DHT22;3382;51.576;8.076;2023-02-01T09:20:03;17.20;99.90
6690;DHT22;3382;51.576;8.076;2023-02-01T09:22:28;17.80;99.90
6690;DHT22;3382;51.576;8.076;2023-02-01T09:24:54;18.00;99.90
6690;DHT22;3382;51.576;8.076;2023-02-01T09:27:20;18.20;99.90
6690;DHT22;3382;51.576;8.076;2023-02-01T09:29:45;18.40;99.90
6690;DHT22;3382;51.576;8.076;2023-02-01T09:32:15;18.40;99.90
6690;DHT22;3382;51.576;8.076;2023-02-01T09:34:40;18.40;99.90
6690;DHT22;3382;51.576;8.076;2023-02-01T09:37:06;18.20;99.90
6690;DHT22;3382;51.576;8.076;2023-02-01T09:39:32;18.20;99.90
6690;DHT22;3382;51.576;8.076;2023-02-01T09:47:23;18.00;99.90
6690;DHT22;3382;51.576;8.076;2023-02-01T09:50:08;17.70;99.90
6690;DHT22;3382;51.576;8.076;2023-02-01T09:52:40;17.60;99.90
6690;DHT22;3382;51.576;8.076;2023-02-01T09:55:15;17.20;99.90
6690;DHT22;3382;51.576;8.076;2023-02-01T10:00:20;17.40;99.90
6690;DHT22;3382;51.576;8.076;2023-02-01T10:02:49;17.30;99.90
6690;DHT22;3382;51.576;8.076;2023-02-01T10:05:18;17.10;99.90
6690;DHT22;3382;51.576;8.076;2023-02-01T10:10:49;17.80;99.90
6690;DHT22;3382;51.576;8.076;2023-02-01T10:19:02;18.60;99.90
6690;DHT22;3382;51.576;8.076;2023-02-01T10:21:52;18.70;99.90
6690;DHT22;3382;51.576;8.076;2023-02-01T10:27:08;19.00;99.90
6690;DHT22;3382;51.576;8.076;2023-02-01T10:29:40;19.40;99.90
6690;DHT22;3382;51.576;8.076;2023-02-01T10:32:17;19.30;99.90
6690;DHT22;3382;51.576;8.076;2023-02-01T10:34:48;19.20;99.90
6690;DHT22;3382;51.576;8.076;2023-02-01T10:39:46;19.30;99.90
6690;DHT22;3382;51.576;8.076;2023-02-01T10:42:14;19.60;99.90
6690;DHT22;3382;51.576;8.076;2023-02-01T10:44:43;19.20;99.90
6690;DHT22;3382;51.576;8.076;2023-02-01T10:47:10;19.20;99.90
6690;DHT22;3382;51.576;8.076;2023-02-01T10:52:34;19.40;99.90
6690;DHT22;3382;51.576;8.076;2023-02-01T10:58:30;19.70;99.90
6690;DHT22;3382;51.576;8.076;2023-02-01T11:01:16;19.80;99.90
6690;DHT22;3382;51.576;8.076;2023-02-01T11:03:46;19.90;99.90
6690;DHT22;3382;51.576;8.076;2023-02-01T11:06:18;19.50;99.90
6690;DHT22;3382;51.576;8.076;2023-02-01T11:08:50;19.60;99.90
6690;DHT22;3382;51.576;8.076;2023-02-01T11:11:16;19.70;99.90
6690;DHT22;3382;51.576;8.076;2023-02-01T11:13:42;19.70;99.90
6690;DHT22;3382;51.576;8.076;2023-02-01T11:16:12;19.70;99.90
6690;DHT22;3382;51.576;8.076;2023-02-01T11:18:38;19.70;99.90
6690;DHT22;3382;51.576;8.076;2023-02-01T11:21:06;19.70;99.90
6690;DHT22;3382;51.576;8.076;2023-02-01T11:23:33;19.80;99.90
6690;DHT22;3382;51.576;8.076;2023-02-01T11:26:01;19.50;99.90
6690;DHT22;3382;51.576;8.076;2023-02-01T11:28:31;19.50;99.90
6690;DHT22;3382;51.576;8.076;2023-02-01T11:31:00;19.50;99.90
6690;DHT22;3382;51.576;8.076;2023-02-01T11:33:33;19.70;99.90
6690;DHT22;3382;51.576;8.076;2023-02-01T11:36:07;19.90;99.90
6690;DHT22;3382;51.576;8.076;2023-02-01T11:38:34;20.00;99.90
6690;DHT22;3382;51.576;8.076;2023-02-01T11:41:40;20.00;99.90
6690;DHT22;3382;51.576;8.076;2023-02-01T11:44:40;19.70;99.90
6690;DHT22;3382;51.576;8.076;2023-02-01T11:49:57;19.90;99.90
6690;DHT22;3382;51.576;8.076;2023-02-01T12:28:10;20.20;99.90
6690;DHT22;3382;51.576;8.076;2023-02-01T12:30:55;20.20;99.90
6690;DHT22;3382;51.576;8.076;2023-02-01T12:39:59;20.70;99.90
6690;DHT22;3382;51.576;8.076;2023-02-01T12:42:45;20.60;99.90
6690;DHT22;3382;51.576;8.076;2023-02-01T12:45:30;20.40;99.90
6690;DHT22;3382;51.576;8.076;2023-02-01T12:48:08;20.30;99.90
6690;DHT22;3382;51.576;8.076;2023-02-01T12:50:45;20.40;99.90
6690;DHT22;3382;51.576;8.076;2023-02-01T12:53:19;20.30;99.90
6690;DHT22;3382;51.576;8.076;2023-02-01T12:55:58;20.30;99.90
6690;DHT22;3382;51.576;8.076;2023-02-01T12:58:45;20.40;99.90
6690;DHT22;3382;51.576;8.076;2023-02-01T13:01:18;20.30;99.90
6690;DHT22;3382;51.576;8.076;2023-02-01T13:03:57;20.30;99.90
6690;DHT22;3382;51.576;8.076;2023-02-01T13:06:51;20.30;99.90
6690;DHT22;3382;51.576;8.076;2023-02-01T13:09:41;20.10;99.90
6690;DHT22;3382;51.576;8.076;2023-02-01T13:12:14;20.00;99.90
6690;DHT22;3382;51.576;8.076;2023-02-01T13:14:46;20.10;99.90
6690;DHT22;3382;51.576;8.076;2023-02-01T13:17:21;19.90;99.90
6690;DHT22;3382;51.576;8.076;2023-02-01T13:19:59;19.80;99.90
6690;DHT22;3382;51.576;8.076;2023-02-01T13:22:37;20.00;99.90
6690;DHT22;3382;51.576;8.076;2023-02-01T13:25:16;20.10;99.90
6690;DHT22;3382;51.576;8.076;2023-02-01T13:27:43;20.20;99.90
6690;DHT22;3382;51.576;8.076;2023-02-01T13:32:46;19.90;99.90
6690;DHT22;3382;51.576;8.076;2023-02-01T13:41:29;19.70;99.90
6690;DHT22;3382;51.576;8.076;2023-02-01T13:43:35;20.00;99.90
6690;DHT22;3382;51.576;8.076;2023-02-01T13:46:08;19.50;99.90
6690;DHT22;3382;51.576;8.076;2023-02-01T13:48:54;19.00;99.90
6690;DHT22;3382;51.576;8.076;2023-02-01T13:51:42;18.80;99.90
6690;DHT22;3382;51.576;8.076;2023-02-01T13:54:31;18.90;99.90
6690;DHT22;3382;51.576;8.076;2023-02-01T13:56:59;19.10;99.90
6690;DHT22;3382;51.576;8.076;2023-02-01T14:10:52;20.00;99.90
6690;DHT22;3382;51.576;8.076;2023-02-01T14:13:36;20.00;99.90
6690;DHT22;3382;51.576;8.076;2023-02-01T14:21:34;20.30;99.90
6690;DHT22;3382;51.576;8.076;2023-02-01T14:34:17;20.30;99.90
6690;DHT22;3382;51.576;8.076;2023-02-01T14:37:05;20.00;99.90
6690;DHT22;3382;51.576;8.076;2023-02-01T15:01:29;19.20;99.90
6690;DHT22;3382;51.576;8.076;2023-02-01T15:08:56;19.10;99.90
6690;DHT22;3382;51.576;8.076;2023-02-01T15:11:22;18.90;99.90
6690;DHT22;3382;51.576;8.076;2023-02-01T15:13:52;18.90;99.90
6690;DHT22;3382;51.576;8.076;2023-02-01T15:16:22;18.60;99.90
6690;DHT22;3382;51.576;8.076;2023-02-01T15:18:48;18.60;99.90
6690;DHT22;3382;51.576;8.076;2023-02-01T15:21:19;18.60;99.90
6690;DHT22;3382;51.576;8.076;2023-02-01T15:23:46;18.50;99.90
6690;DHT22;3382;51.576;8.076;2023-02-01T15:26:34;18.90;99.90
6690;DHT22;3382;51.576;8.076;2023-02-01T15:29:00;19.20;99.90
6690;DHT22;3382;51.576;8.076;2023-02-01T15:31:35;19.30;99.90
6690;DHT22;3382;51.576;8.076;2023-02-01T15:34:01;19.60;99.90
6690;DHT22;3382;51.576;8.076;2023-02-01T15:36:26;19.60;99.90
6690;DHT22;3382;51.576;8.076;2023-02-01T15:39:19;19.60;99.90
6690;DHT22;3382;51.576;8.076;2023-02-01T15:41:51;19.10;99.90
6690;DHT22;3382;51.576;8.076;2023-02-01T15:46:49;19.00;99.90
6690;DHT22;3382;51.576;8.076;2023-02-01T15:49:35;19.10;99.90
6690;DHT22;3382;51.576;8.076;2023-02-01T15:52:03;19.40;99.90
6690;DHT22;3382;51.576;8.076;2023-02-01T15:54:32;19.40;99.90
6690;DHT22;3382;51.576;8.076;2023-02-01T15:57:02;19.60;99.90
6690;DHT22;3382;51.576;8.076;2023-02-01T15:59:32;19.60;99.90
6690;DHT22;3382;51.576;8.076;2023-02-01T16:01:59;19.30;99.90
6690;DHT22;3382;51.576;8.076;2023-02-01T16:04:27;19.10;99.90
6690;DHT22;3382;51.576;8.076;2023-02-01T16:07:03;18.90;99.90
6690;DHT22;3382;51.576;8.076;2023-02-01T16:09:51;19.10;99.90
6690;DHT22;3382;51.576;8.076;2023-02-01T16:15:04;19.10;99.90
6690;DHT22;3382;51.576;8.076;2023-02-01T16:17:30;19.00;99.90
6690;DHT22;3382;51.576;8.076;2023-02-01T16:19:56;19.40;99.90
6690;DHT22;3382;51.576;8.076;2023-02-01T16:22:23;19.60;99.90
6690;DHT22;3382;51.576;8.076;2023-02-01T16:24:49;19.50;99.90
6690;DHT22;3382;51.576;8.076;2023-02-01T16:27:15;19.70;99.90
6690;DHT22;3382;51.576;8.076;2023-02-01T16:29:40;19.60;99.90
6690;DHT22;3382;51.576;8.076;2023-02-01T16:32:08;19.30;99.90
6690;DHT22;3382;51.576;8.076;2023-02-01T16:34:36;19.20;99.90
6690;DHT22;3382;51.576;8.076;2023-02-01T16:37:03;19.30;99.90
6690;DHT22;3382;51.576;8.076;2023-02-01T16:39:28;19.10;99.90
6690;DHT22;3382;51.576;8.076;2023-02-01T16:41:55;18.60;99.90
6690;DHT22;3382;51.576;8.076;2023-02-01T16:44:20;17.90;99.90
6690;DHT22;3382;51.576;8.076;2023-02-01T16:46:47;17.90;99.90
6690;DHT22;3382;51.576;8.076;2023-02-01T16:49:20;17.40;99.90
6690;DHT22;3382;51.576;8.076;2023-02-01T16:51:48;16.90;99.90
6690;DHT22;3382;51.576;8.076;2023-02-01T16:54:14;16.10;99.90
6690;DHT22;3382;51.576;8.076;2023-02-01T16:56:41;15.20;99.90
6690;DHT22;3382;51.576;8.076;2023-02-01T16:59:08;14.20;99.90
6690;DHT22;3382;51.576;8.076;2023-02-01T17:01:34;13.40;99.90
6690;DHT22;3382;51.576;8.076;2023-02-01T17:04:00;12.90;99.90
6690;DHT22;3382;51.576;8.076;2023-02-01T17:06:26;12.50;99.90
6690;DHT22;3382;51.576;8.076;2023-02-01T17:08:55;12.50;99.90
6690;DHT22;3382;51.576;8.076;2023-02-01T17:11:23;13.10;99.90
6690;DHT22;3382;51.576;8.076;2023-02-01T17:13:49;13.20;99.90
6690;DHT22;3382;51.576;8.076;2023-02-01T17:16:21;13.80;99.90
6690;DHT22;3382;51.576;8.076;2023-02-01T17:18:59;14.00;99.90
6690;DHT22;3382;51.576;8.076;2023-02-01T17:21:29;13.40;99.90
6690;DHT22;3382;51.576;8.076;2023-02-01T17:23:55;13.30;99.90
6690;DHT22;3382;51.576;8.076;2023-02-01T17:26:24;13.40;99.90
6690;DHT22;3382;51.576;8.076;2023-02-01T17:28:49;13.50;99.90
6690;DHT22;3382;51.576;8.076;2023-02-01T17:31:16;13.90;99.90
6690;DHT22;3382;51.576;8.076;2023-02-01T17:33:43;14.40;99.90
6690;DHT22;3382;51.576;8.076;2023-02-01T17:36:12;14.60;99.90
6690;DHT22;3382;51.576;8.076;2023-02-01T17:38:38;15.00;99.90
6690;DHT22;3382;51.576;8.076;2023-02-01T17:41:04;15.30;99.90
6690;DHT22;3382;51.576;8.076;2023-02-01T17:43:29;15.50;99.90
6690;DHT22;3382;51.576;8.076;2023-02-01T17:48:29;15.90;99.90
6690;DHT22;3382;51.576;8.076;2023-02-01T17:50:54;16.30;99.90
6690;DHT22;3382;51.576;8.076;2023-02-01T17:53:27;16.40;99.90
6690;DHT22;3382;51.576;8.076;2023-02-01T17:55:53;15.70;99.90
6690;DHT22;3382;51.576;8.076;2023-02-01T17:58:20;15.10;99.90
6690;DHT22;3382;51.576;8.076;2023-02-01T18:00:47;14.30;99.90
6690;DHT22;3382;51.576;8.076;2023-02-01T18:05:46;13.30;99.90
6690;DHT22;3382;51.576;8.076;2023-02-01T18:08:16;12.90;99.90
6690;DHT22;3382;51.576;8.076;2023-02-01T18:10:42;12.60;99.90
6690;DHT22;3382;51.576;8.076;2023-02-01T18:13:10;12.00;99.90
6690;DHT22;3382;51.576;8.076;2023-02-01T18:15:36;11.40;99.90
6690;DHT22;3382;51.576;8.076;2023-02-01T18:18:04;11.00;99.90
6690;DHT22;3382;51.576;8.076;2023-02-01T18:20:30;10.70;99.90
6690;DHT22;3382;51.576;8.076;2023-02-01T18:22:55;10.30;99.90
6690;DHT22;3382;51.576;8.076;2023-02-01T18:25:24;10.00;99.90
6690;DHT22;3382;51.576;8.076;2023-02-01T18:27:53;9.80;99.90
6690;DHT22;3382;51.576;8.076;2023-02-01T18:30:21;9.60;99.90
6690;DHT22;3382;51.576;8.076;2023-02-01T18:32:47;9.40;99.90
6690;DHT22;3382;51.576;8.076;2023-02-01T18:35:25;9.20;99.90
6690;DHT22;3382;51.576;8.076;2023-02-01T18:37:51;9.10;99.90
6690;DHT22;3382;51.576;8.076;2023-02-01T18:40:21;9.00;99.90
6690;DHT22;3382;51.576;8.076;2023-02-01T18:42:47;8.90;99.90
6690;DHT22;3382;51.576;8.076;2023-02-01T18:45:32;8.70;99.90
6690;DHT22;3382;51.576;8.076;2023-02-01T18:47:59;8.90;99.90
6690;DHT22;3382;51.576;8.076;2023-02-01T18:50:30;9.20;99.90
6690;DHT22;3382;51.576;8.076;2023-02-01T18:52:57;9.20;99.90
6690;DHT22;3382;51.576;8.076;2023-02-01T18:55:24;9.00;99.90
6690;DHT22;3382;51.576;8.076;2023-02-01T18:57:50;9.10;99.90
6690;DHT22;3382;51.576;8.076;2023-02-01T19:00:17;9.60;99.90
6690;DHT22;3382;51.576;8.076;2023-02-01T19:02:44;9.80;99.90
6690;DHT22;3382;51.576;8.076;2023-02-01T19:05:10;10.30;99.90
6690;DHT22;3382;51.576;8.076;2023-02-01T19:07:37;10.10;99.90
6690;DHT22;3382;51.576;8.076;2023-02-01T19:10:07;9.80;99.90
6690;DHT22;3382;51.576;8.076;2023-02-01T19:12:33;9.60;99.90
6690;DHT22;3382;51.576;8.076;2023-02-01T19:15:00;9.60;99.90
6690;DHT22;3382;51.576;8.076;2023-02-01T19:17:27;9.70;99.90
6690;DHT22;3382;51.576;8.076;2023-02-01T19:19:53;9.60;99.90